sensor_id;sensor_type;location;lat;lon;timestamp;P1;durP1;ratioP1;P2;durP2;ratioP2
22549;SDS011;11441;57.164;-2.120;2023-02-08T00:01:19;2.63;;;1.20;;
22549;SDS011;11441;57.164;-2.120;2023-02-08T00:03:48;6.47;;;1.13;;
22549;SDS011;11441;57.164;-2.120;2023-02-08T00:06:15;2.47;;;0.80;;
22549;SDS011;11441;57.164;-2.120;2023-02-08T00:08:42;1.73;;;0.90;;
22549;SDS011;11441;57.164;-2.120;2023-02-08T00:11:10;1.77;;;0.93;;
22549;SDS011;11441;57.164;-2.120;2023-02-08T00:13:38;3.20;;;0.97;;
22549;SDS011;11441;57.164;-2.120;2023-02-08T00:16:07;6.77;;;1.33;;
22549;SDS011;11441;57.164;-2.120;2023-02-08T00:18:35;5.80;;;1.07;;
22549;SDS011;11441;57.164;-2.120;2023-02-08T00:21:13;5.13;;;0.90;;
22549;SDS011;11441;57.164;-2.120;2023-02-08T00:23:41;6.57;;;1.00;;
22549;SDS011;11441;57.164;-2.120;2023-02-08T00:26:09;2.40;;;1.03;;
22549;SDS011;11441;57.164;-2.120;2023-02-08T00:28:36;2.70;;;1.00;;
22549;SDS011;11441;57.164;-2.120;2023-02-08T00:31:03;2.77;;;1.30;;
22549;SDS011;11441;57.164;-2.120;2023-02-08T00:33:30;3.57;;;0.90;;
22549;SDS011;11441;57.164;-2.120;2023-02-08T00:35:58;6.77;;;0.90;;
22549;SDS011;11441;57.164;-2.120;2023-02-08T00:38:26;2.60;;;0.70;;
22549;SDS011;11441;57.164;-2.120;2023-02-08T00:40:54;4.03;;;1.00;;
22549;SDS011;11441;57.164;-2.120;2023-02-08T00:43:22;5.43;;;0.90;;
22549;SDS011;11441;57.164;-2.120;2023-02-08T00:45:53;2.20;;;0.63;;
22549;SDS011;11441;57.164;-2.120;2023-02-08T00:48:22;1.63;;;0.93;;
22549;SDS011;11441;57.164;-2.120;2023-02-08T00:50:56;1.93;;;0.87;;
22549;SDS011;11441;57.164;-2.120;2023-02-08T00:53:37;2.87;;;0.63;;
22549;SDS011;11441;57.164;-2.120;2023-02-08T00:56:06;2.73;;;0.87;;
22549;SDS011;11441;57.164;-2.120;2023-02-08T00:58:35;2.97;;;0.73;;
22549;SDS011;11441;57.164;-2.120;2023-02-08T01:01:02;0.60;;;0.57;;
22549;SDS011;11441;57.164;-2.120;2023-02-08T01:03:31;4.43;;;0.80;;
22549;SDS011;11441;57.164;-2.120;2023-02-08T01:06:00;2.67;;;0.87;;
22549;SDS011;11441;57.164;-2.120;2023-02-08T01:08:28;3.33;;;0.60;;
22549;SDS011;11441;57.164;-2.120;2023-02-08T01:11:28;5.17;;;0.53;;
22549;SDS011;11441;57.164;-2.120;2023-02-08T01:16:36;1.90;;;0.50;;
22549;SDS011;11441;57.164;-2.120;2023-02-08T01:19:03;5.13;;;0.80;;
22549;SDS011;11441;57.164;-2.120;2023-02-08T01:21:34;5.70;;;0.70;;
22549;SDS011;11441;57.164;-2.120;2023-02-08T01:24:03;1.40;;;0.47;;
22549;SDS011;11441;57.164;-2.120;2023-02-08T01:26:30;3.13;;;0.40;;
22549;SDS011;11441;57.164;-2.120;2023-02-08T01:28:58;3.03;;;0.70;;
22549;SDS011;11441;57.164;-2.120;2023-02-08T01:31:32;7.10;;;1.10;;
22549;SDS011;11441;57.164;-2.120;2023-02-08T01:34:01;2.53;;;1.00;;
22549;SDS011;11441;57.164;-2.120;2023-02-08T01:36:29;6.23;;;0.90;;
22549;SDS011;11441;57.164;-2.120;2023-02-08T01:38:58;1.87;;;0.50;;
22549;SDS011;11441;57.164;-2.120;2023-02-08T01:41:27;2.03;;;0.47;;
22549;SDS011;11441;57.164;-2.120;2023-02-08T01:45:14;0.80;;;0.50;;
22549;SDS011;11441;57.164;-2.120;2023-02-08T01:47:14;3.90;;;0.90;;
22549;SDS011;11441;57.164;-2.120;2023-02-08T01:49:41;3.13;;;0.90;;
22549;SDS011;11441;57.164;-2.120;2023-02-08T01:52:18;3.87;;;0.50;;
22549;SDS011;11441;57.164;-2.120;2023-02-08T01:54:52;1.43;;;0.63;;
22549;SDS011;11441;57.164;-2.120;2023-02-08T01:57:24;6.77;;;0.50;;
22549;SDS011;11441;57.164;-2.120;2023-02-08T01:59:58;0.53;;;0.53;;
22549;SDS011;11441;57.164;-2.120;2023-02-08T02:02:46;3.90;;;0.97;;
22549;SDS011;11441;57.164;-2.120;2023-02-08T02:05:15;2.80;;;0.77;;
22549;SDS011;11441;57.164;-2.120;2023-02-08T02:07:43;2.40;;;0.57;;
22549;SDS011;11441;57.164;-2.120;2023-02-08T02:10:15;2.33;;;0.50;;
22549;SDS011;11441;57.164;-2.120;2023-02-08T02:12:48;3.03;;;0.80;;
22549;SDS011;11441;57.164;-2.120;2023-02-08T02:15:17;1.60;;;0.50;;
22549;SDS011;11441;57.164;-2.120;2023-02-08T02:17:44;1.70;;;0.70;;
22549;SDS011;11441;57.164;-2.120;2023-02-08T02:20:21;2.20;;;0.67;;
22549;SDS011;11441;57.164;-2.120;2023-02-08T02:23:25;3.50;;;0.80;;
22549;SDS011;11441;57.164;-2.120;2023-02-08T02:34:31;2.00;;;0.83;;
22549;SDS011;11441;57.164;-2.120;2023-02-08T02:40:15;1.40;;;0.63;;
22549;SDS011;11441;57.164;-2.120;2023-02-08T02:43:12;2.73;;;1.20;;
22549;SDS011;11441;57.164;-2.120;2023-02-08T02:46:14;9.93;;;1.50;;
22549;SDS011;11441;57.164;-2.120;2023-02-08T02:51:42;2.60;;;1.30;;
22549;SDS011;11441;57.164;-2.120;2023-02-08T02:54:33;3.47;;;1.97;;
22549;SDS011;11441;57.164;-2.120;2023-02-08T02:57:04;9.97;;;1.80;;
22549;SDS011;11441;57.164;-2.120;2023-02-08T02:59:33;2.00;;;1.40;;
22549;SDS011;11441;57.164;-2.120;2023-02-08T03:02:03;3.73;;;1.57;;
22549;SDS011;11441;57.164;-2.120;2023-02-08T03:12:50;5.10;;;1.20;;
22549;SDS011;11441;57.164;-2.120;2023-02-08T03:18:22;3.30;;;1.70;;
22549;SDS011;11441;57.164;-2.120;2023-02-08T03:22:16;7.50;;;1.80;;
22549;SDS011;11441;57.164;-2.120;2023-02-08T03:24:44;3.77;;;1.97;;
22549;SDS011;11441;57.164;-2.120;2023-02-08T03:33:29;3.93;;;1.50;;
22549;SDS011;11441;57.164;-2.120;2023-02-08T03:36:03;2.33;;;1.63;;
22549;SDS011;11441;57.164;-2.120;2023-02-08T03:38:38;5.57;;;2.20;;
22549;SDS011;11441;57.164;-2.120;2023-02-08T03:41:10;3.90;;;1.60;;
22549;SDS011;11441;57.164;-2.120;2023-02-08T03:44:00;3.67;;;1.60;;
22549;SDS011;11441;57.164;-2.120;2023-02-08T03:46:33;5.30;;;1.53;;
22549;SDS011;11441;57.164;-2.120;2023-02-08T03:49:06;4.77;;;2.17;;
22549;SDS011;11441;57.164;-2.120;2023-02-08T03:51:37;4.83;;;2.00;;
22549;SDS011;11441;57.164;-2.120;2023-02-08T03:57:14;2.03;;;1.37;;
22549;SDS011;11441;57.164;-2.120;2023-02-08T04:00:01;1.63;;;1.37;;
22549;SDS011;11441;57.164;-2.120;2023-02-08T04:02:38;2.23;;;1.90;;
22549;SDS011;11441;57.164;-2.120;2023-02-08T04:05:10;2.90;;;1.67;;
22549;SDS011;11441;57.164;-2.120;2023-02-08T04:07:37;2.90;;;1.87;;
22549;SDS011;11441;57.164;-2.120;2023-02-08T04:10:04;1.30;;;1.20;;
22549;SDS011;11441;57.164;-2.120;2023-02-08T04:12:31;1.97;;;1.60;;
22549;SDS011;11441;57.164;-2.120;2023-02-08T04:14:58;3.30;;;1.70;;
22549;SDS011;11441;57.164;-2.120;2023-02-08T04:17:25;2.63;;;1.83;;
22549;SDS011;11441;57.164;-2.120;2023-02-08T04:19:51;2.83;;;1.70;;
22549;SDS011;11441;57.164;-2.120;2023-02-08T04:22:18;5.23;;;2.00;;
22549;SDS011;11441;57.164;-2.120;2023-02-08T04:24:45;2.70;;;2.20;;
22549;SDS011;11441;57.164;-2.120;2023-02-08T04:27:12;4.90;;;2.10;;
22549;SDS011;11441;57.164;-2.120;2023-02-08T04:29:38;3.30;;;2.63;;
22549;SDS011;11441;57.164;-2.120;2023-02-08T04:32:06;5.80;;;2.57;;
22549;SDS011;11441;57.164;-2.120;2023-02-08T04:34:54;3.17;;;2.43;;
22549;SDS011;11441;57.164;-2.120;2023-02-08T04:37:21;3.07;;;2.40;;
22549;SDS011;11441;57.164;-2.120;2023-02-08T04:39:48;4.43;;;3.00;;
22549;SDS011;11441;57.164;-2.120;2023-02-08T04:42:15;3.03;;;2.40;;
22549;SDS011;11441;57.164;-2.120;2023-02-08T04:44:41;3.60;;;2.43;;
22549;SDS011;11441;57.164;-2.120;2023-02-08T04:47:08;4.70;;;3.10;;
22549;SDS011;11441;57.164;-2.120;2023-02-08T04:49:35;5.33;;;3.20;;
22549;SDS011;11441;57.164;-2.120;2023-02-08T04:52:02;5.27;;;3.37;;
22549;SDS011;11441;57.164;-2.120;2023-02-08T04:54:29;7.00;;;3.83;;
22549;SDS011;11441;57.164;-2.120;2023-02-08T04:56:56;6.30;;;3.53;;
22549;SDS011;11441;57.164;-2.120;2023-02-08T04:59:40;6.73;;;4.07;;
22549;SDS011;11441;57.164;-2.120;2023-02-08T05:02:07;6.87;;;3.80;;
22549;SDS011;11441;57.164;-2.120;2023-02-08T05:04:35;4.93;;;3.80;;
22549;SDS011;11441;57.164;-2.120;2023-02-08T05:07:02;4.10;;;3.70;;
22549;SDS011;11441;57.164;-2.120;2023-02-08T05:09:28;7.43;;;4.73;;
22549;SDS011;11441;57.164;-2.120;2023-02-08T05:11:55;6.50;;;4.03;;
22549;SDS011;11441;57.164;-2.120;2023-02-08T05:14:22;7.63;;;4.53;;
22549;SDS011;11441;57.164;-2.120;2023-02-08T05:16:49;7.53;;;5.37;;
22549;SDS011;11441;57.164;-2.120;2023-02-08T05:19:15;4.93;;;4.33;;
22549;SDS011;11441;57.164;-2.120;2023-02-08T05:21:42;6.03;;;4.80;;
22549;SDS011;11441;57.164;-2.120;2023-02-08T05:24:09;5.97;;;5.07;;
22549;SDS011;11441;57.164;-2.120;2023-02-08T05:26:56;6.77;;;4.57;;
22549;SDS011;11441;57.164;-2.120;2023-02-08T05:29:22;6.40;;;4.00;;
22549;SDS011;11441;57.164;-2.120;2023-02-08T05:31:49;5.10;;;4.07;;
22549;SDS011;11441;57.164;-2.120;2023-02-08T05:34:16;4.93;;;3.67;;
22549;SDS011;11441;57.164;-2.120;2023-02-08T05:36:43;4.87;;;2.57;;
22549;SDS011;11441;57.164;-2.120;2023-02-08T05:39:28;3.37;;;2.20;;
22549;SDS011;11441;57.164;-2.120;2023-02-08T05:42:12;3.23;;;1.90;;
22549;SDS011;11441;57.164;-2.120;2023-02-08T05:44:39;2.20;;;2.00;;
22549;SDS011;11441;57.164;-2.120;2023-02-08T05:47:06;2.57;;;1.97;;
22549;SDS011;11441;57.164;-2.120;2023-02-08T05:49:33;2.43;;;2.23;;
22549;SDS011;11441;57.164;-2.120;2023-02-08T05:51:59;3.37;;;2.67;;
22549;SDS011;11441;57.164;-2.120;2023-02-08T05:54:26;3.60;;;2.80;;
22549;SDS011;11441;57.164;-2.120;2023-02-08T05:56:53;2.30;;;2.10;;
22549;SDS011;11441;57.164;-2.120;2023-02-08T05:59:20;5.80;;;3.30;;
22549;SDS011;11441;57.164;-2.120;2023-02-08T06:01:47;2.90;;;2.63;;
22549;SDS011;11441;57.164;-2.120;2023-02-08T06:04:14;5.03;;;3.37;;
22549;SDS011;11441;57.164;-2.120;2023-02-08T06:06:41;5.37;;;3.10;;
22549;SDS011;11441;57.164;-2.120;2023-02-08T06:09:07;4.37;;;3.93;;
22549;SDS011;11441;57.164;-2.120;2023-02-08T06:11:34;6.83;;;3.80;;
22549;SDS011;11441;57.164;-2.120;2023-02-08T06:14:01;5.53;;;4.17;;
22549;SDS011;11441;57.164;-2.120;2023-02-08T06:16:28;4.07;;;3.50;;
22549;SDS011;11441;57.164;-2.120;2023-02-08T06:18:55;5.03;;;4.13;;
22549;SDS011;11441;57.164;-2.120;2023-02-08T06:21:22;6.63;;;5.03;;
22549;SDS011;11441;57.164;-2.120;2023-02-08T06:23:50;4.47;;;4.07;;
22549;SDS011;11441;57.164;-2.120;2023-02-08T06:26:16;5.13;;;4.43;;
22549;SDS011;11441;57.164;-2.120;2023-02-08T06:28:43;4.80;;;4.27;;
22549;SDS011;11441;57.164;-2.120;2023-02-08T06:31:10;6.10;;;3.83;;
22549;SDS011;11441;57.164;-2.120;2023-02-08T06:33:37;5.83;;;3.83;;
22549;SDS011;11441;57.164;-2.120;2023-02-08T06:36:03;3.67;;;3.30;;
22549;SDS011;11441;57.164;-2.120;2023-02-08T06:38:30;4.70;;;3.47;;
22549;SDS011;11441;57.164;-2.120;2023-02-08T06:40:57;5.20;;;4.00;;
22549;SDS011;11441;57.164;-2.120;2023-02-08T06:43:24;5.23;;;3.70;;
22549;SDS011;11441;57.164;-2.120;2023-02-08T06:45:51;5.60;;;3.40;;
22549;SDS011;11441;57.164;-2.120;2023-02-08T06:48:18;5.07;;;3.70;;
22549;SDS011;11441;57.164;-2.120;2023-02-08T06:50:45;3.73;;;2.83;;
22549;SDS011;11441;57.164;-2.120;2023-02-08T06:53:11;4.33;;;3.40;;
22549;SDS011;11441;57.164;-2.120;2023-02-08T06:55:38;3.87;;;3.40;;
22549;SDS011;11441;57.164;-2.120;2023-02-08T06:58:05;7.37;;;4.00;;
22549;SDS011;11441;57.164;-2.120;2023-02-08T07:00:32;4.30;;;3.10;;
22549;SDS011;11441;57.164;-2.120;2023-02-08T07:02:58;4.80;;;3.67;;
22549;SDS011;11441;57.164;-2.120;2023-02-08T07:05:26;3.70;;;3.00;;
22549;SDS011;11441;57.164;-2.120;2023-02-08T07:08:29;5.70;;;3.67;;
22549;SDS011;11441;57.164;-2.120;2023-02-08T07:10:56;5.53;;;3.37;;
22549;SDS011;11441;57.164;-2.120;2023-02-08T07:13:23;4.60;;;3.07;;
22549;SDS011;11441;57.164;-2.120;2023-02-08T07:15:50;3.67;;;2.50;;
22549;SDS011;11441;57.164;-2.120;2023-02-08T07:18:17;3.83;;;2.80;;
22549;SDS011;11441;57.164;-2.120;2023-02-08T07:20:44;3.43;;;2.77;;
22549;SDS011;11441;57.164;-2.120;2023-02-08T07:23:10;4.60;;;3.43;;
22549;SDS011;11441;57.164;-2.120;2023-02-08T07:25:37;4.60;;;3.43;;
22549;SDS011;11441;57.164;-2.120;2023-02-08T07:28:04;3.93;;;3.60;;
22549;SDS011;11441;57.164;-2.120;2023-02-08T07:30:31;4.77;;;3.77;;
22549;SDS011;11441;57.164;-2.120;2023-02-08T07:32:58;5.27;;;4.00;;
22549;SDS011;11441;57.164;-2.120;2023-02-08T07:35:24;5.23;;;4.20;;
22549;SDS011;11441;57.164;-2.120;2023-02-08T07:37:51;8.00;;;4.80;;
22549;SDS011;11441;57.164;-2.120;2023-02-08T07:40:18;5.47;;;4.83;;
22549;SDS011;11441;57.164;-2.120;2023-02-08T07:43:02;5.77;;;5.13;;
22549;SDS011;11441;57.164;-2.120;2023-02-08T07:45:40;5.20;;;4.70;;
22549;SDS011;11441;57.164;-2.120;2023-02-08T07:48:07;8.27;;;5.27;;
22549;SDS011;11441;57.164;-2.120;2023-02-08T07:50:34;5.87;;;5.27;;
22549;SDS011;11441;57.164;-2.120;2023-02-08T07:53:00;6.37;;;5.07;;
22549;SDS011;11441;57.164;-2.120;2023-02-08T07:55:27;6.33;;;4.43;;
22549;SDS011;11441;57.164;-2.120;2023-02-08T07:57:54;4.43;;;4.03;;
22549;SDS011;11441;57.164;-2.120;2023-02-08T08:00:22;6.30;;;4.70;;
22549;SDS011;11441;57.164;-2.120;2023-02-08T08:02:50;5.40;;;4.57;;
22549;SDS011;11441;57.164;-2.120;2023-02-08T08:05:17;7.73;;;4.33;;
22549;SDS011;11441;57.164;-2.120;2023-02-08T08:07:43;8.07;;;5.47;;
22549;SDS011;11441;57.164;-2.120;2023-02-08T08:10:10;6.13;;;4.60;;
22549;SDS011;11441;57.164;-2.120;2023-02-08T08:12:37;4.53;;;3.47;;
22549;SDS011;11441;57.164;-2.120;2023-02-08T08:15:04;6.53;;;4.40;;
22549;SDS011;11441;57.164;-2.120;2023-02-08T08:17:31;6.03;;;4.13;;
22549;SDS011;11441;57.164;-2.120;2023-02-08T08:19:58;6.37;;;3.97;;
22549;SDS011;11441;57.164;-2.120;2023-02-08T08:22:25;6.37;;;4.60;;
22549;SDS011;11441;57.164;-2.120;2023-02-08T08:24:51;4.83;;;4.33;;
22549;SDS011;11441;57.164;-2.120;2023-02-08T08:27:19;6.13;;;4.10;;
22549;SDS011;11441;57.164;-2.120;2023-02-08T08:29:46;6.33;;;4.50;;
22549;SDS011;11441;57.164;-2.120;2023-02-08T08:32:12;5.60;;;3.80;;
22549;SDS011;11441;57.164;-2.120;2023-02-08T08:34:39;4.13;;;3.73;;
22549;SDS011;11441;57.164;-2.120;2023-02-08T08:37:06;9.27;;;4.53;;
22549;SDS011;11441;57.164;-2.120;2023-02-08T08:39:33;7.47;;;4.50;;
22549;SDS011;11441;57.164;-2.120;2023-02-08T08:42:00;5.87;;;4.13;;
22549;SDS011;11441;57.164;-2.120;2023-02-08T08:44:29;5.87;;;4.67;;
22549;SDS011;11441;57.164;-2.120;2023-02-08T08:46:56;6.23;;;3.77;;
22549;SDS011;11441;57.164;-2.120;2023-02-08T08:49:24;7.73;;;4.93;;
22549;SDS011;11441;57.164;-2.120;2023-02-08T08:51:52;6.13;;;4.70;;
22549;SDS011;11441;57.164;-2.120;2023-02-08T08:54:20;7.67;;;4.37;;
22549;SDS011;11441;57.164;-2.120;2023-02-08T08:56:47;8.93;;;5.23;;
22549;SDS011;11441;57.164;-2.120;2023-02-08T08:59:14;5.60;;;4.70;;
22549;SDS011;11441;57.164;-2.120;2023-02-08T09:01:41;7.40;;;4.83;;
22549;SDS011;11441;57.164;-2.120;2023-02-08T09:04:08;5.93;;;4.63;;
22549;SDS011;11441;57.164;-2.120;2023-02-08T09:06:36;6.70;;;4.23;;
22549;SDS011;11441;57.164;-2.120;2023-02-08T09:09:04;4.80;;;3.00;;
22549;SDS011;11441;57.164;-2.120;2023-02-08T09:11:31;7.57;;;4.27;;
22549;SDS011;11441;57.164;-2.120;2023-02-08T09:14:00;8.03;;;5.70;;
22549;SDS011;11441;57.164;-2.120;2023-02-08T09:16:30;4.67;;;4.10;;
22549;SDS011;11441;57.164;-2.120;2023-02-08T09:19:01;3.47;;;3.10;;
22549;SDS011;11441;57.164;-2.120;2023-02-08T09:21:30;7.33;;;4.40;;
22549;SDS011;11441;57.164;-2.120;2023-02-08T09:23:57;4.60;;;3.90;;
22549;SDS011;11441;57.164;-2.120;2023-02-08T09:26:25;8.57;;;4.00;;
22549;SDS011;11441;57.164;-2.120;2023-02-08T09:28:52;5.77;;;4.23;;
22549;SDS011;11441;57.164;-2.120;2023-02-08T09:31:24;3.23;;;2.70;;
22549;SDS011;11441;57.164;-2.120;2023-02-08T09:33:56;9.53;;;4.97;;
22549;SDS011;11441;57.164;-2.120;2023-02-08T09:36:26;3.77;;;3.20;;
22549;SDS011;11441;57.164;-2.120;2023-02-08T09:38:58;4.30;;;2.70;;
22549;SDS011;11441;57.164;-2.120;2023-02-08T09:46:37;5.37;;;3.57;;
22549;SDS011;11441;57.164;-2.120;2023-02-08T09:49:14;7.50;;;3.40;;
22549;SDS011;11441;57.164;-2.120;2023-02-08T09:52:06;7.00;;;3.00;;
22549;SDS011;11441;57.164;-2.120;2023-02-08T09:54:45;5.68;;;3.10;;
22549;SDS011;11441;57.164;-2.120;2023-02-08T09:57:19;3.33;;;2.13;;
22549;SDS011;11441;57.164;-2.120;2023-02-08T09:59:59;7.37;;;3.20;;
22549;SDS011;11441;57.164;-2.120;2023-02-08T10:02:38;5.43;;;2.53;;
22549;SDS011;11441;57.164;-2.120;2023-02-08T10:05:12;7.77;;;3.07;;
22549;SDS011;11441;57.164;-2.120;2023-02-08T10:07:45;5.90;;;2.87;;
22549;SDS011;11441;57.164;-2.120;2023-02-08T10:10:18;5.22;;;2.67;;
22549;SDS011;11441;57.164;-2.120;2023-02-08T10:12:57;5.23;;;2.40;;
22549;SDS011;11441;57.164;-2.120;2023-02-08T10:21:21;4.22;;;1.88;;
22549;SDS011;11441;57.164;-2.120;2023-02-08T10:32:13;5.83;;;2.03;;
22549;SDS011;11441;57.164;-2.120;2023-02-08T10:34:59;6.27;;;2.10;;
22549;SDS011;11441;57.164;-2.120;2023-02-08T10:37:30;2.15;;;1.40;;
22549;SDS011;11441;57.164;-2.120;2023-02-08T10:40:25;3.30;;;1.60;;
22549;SDS011;11441;57.164;-2.120;2023-02-08T10:42:59;2.78;;;1.88;;
22549;SDS011;11441;57.164;-2.120;2023-02-08T10:45:44;4.27;;;1.20;;
22549;SDS011;11441;57.164;-2.120;2023-02-08T10:48:14;2.40;;;1.23;;
22549;SDS011;11441;57.164;-2.120;2023-02-08T10:50:48;3.93;;;1.30;;
22549;SDS011;11441;57.164;-2.120;2023-02-08T10:53:16;8.77;;;1.45;;
22549;SDS011;11441;57.164;-2.120;2023-02-08T10:55:46;4.60;;;1.35;;
22549;SDS011;11441;57.164;-2.120;2023-02-08T10:58:18;6.85;;;1.48;;
22549;SDS011;11441;57.164;-2.120;2023-02-08T11:00:47;3.67;;;1.20;;
22549;SDS011;11441;57.164;-2.120;2023-02-08T11:03:20;4.05;;;1.10;;
22549;SDS011;11441;57.164;-2.120;2023-02-08T11:05:50;6.75;;;1.02;;
22549;SDS011;11441;57.164;-2.120;2023-02-08T11:08:18;4.70;;;1.13;;
22549;SDS011;11441;57.164;-2.120;2023-02-08T11:13:42;5.13;;;1.38;;
22549;SDS011;11441;57.164;-2.120;2023-02-08T11:16:12;4.20;;;1.13;;
22549;SDS011;11441;57.164;-2.120;2023-02-08T11:21:29;1.97;;;0.90;;
22549;SDS011;11441;57.164;-2.120;2023-02-08T11:26:37;5.47;;;0.93;;
22549;SDS011;11441;57.164;-2.120;2023-02-08T11:29:24;1.48;;;0.60;;
22549;SDS011;11441;57.164;-2.120;2023-02-08T11:32:02;2.43;;;0.93;;
22549;SDS011;11441;57.164;-2.120;2023-02-08T11:34:41;1.65;;;0.90;;
22549;SDS011;11441;57.164;-2.120;2023-02-08T11:37:20;3.90;;;1.27;;
22549;SDS011;11441;57.164;-2.120;2023-02-08T11:39:52;3.92;;;1.00;;
22549;SDS011;11441;57.164;-2.120;2023-02-08T11:42:25;5.57;;;0.70;;
22549;SDS011;11441;57.164;-2.120;2023-02-08T11:44:54;4.88;;;1.30;;
22549;SDS011;11441;57.164;-2.120;2023-02-08T11:47:45;4.75;;;0.90;;
22549;SDS011;11441;57.164;-2.120;2023-02-08T11:50:20;6.50;;;1.42;;
22549;SDS011;11441;57.164;-2.120;2023-02-08T11:53:01;3.08;;;1.17;;
22549;SDS011;11441;57.164;-2.120;2023-02-08T11:55:46;6.85;;;1.33;;
22549;SDS011;11441;57.164;-2.120;2023-02-08T11:58:27;4.53;;;1.40;;
22549;SDS011;11441;57.164;-2.120;2023-02-08T12:03:36;6.13;;;1.38;;
22549;SDS011;11441;57.164;-2.120;2023-02-08T12:15:02;7.10;;;1.75;;
22549;SDS011;11441;57.164;-2.120;2023-02-08T12:21:04;6.50;;;1.80;;
22549;SDS011;11441;57.164;-2.120;2023-02-08T12:23:48;10.00;;;2.00;;
22549;SDS011;11441;57.164;-2.120;2023-02-08T12:40:58;11.27;;;2.30;;
22549;SDS011;11441;57.164;-2.120;2023-02-08T12:43:40;6.78;;;1.67;;
22549;SDS011;11441;57.164;-2.120;2023-02-08T12:48:55;8.77;;;1.58;;
22549;SDS011;11441;57.164;-2.120;2023-02-08T12:54:40;7.47;;;2.00;;
22549;SDS011;11441;57.164;-2.120;2023-02-08T12:57:13;10.82;;;2.67;;
22549;SDS011;11441;57.164;-2.120;2023-02-08T13:00:03;6.55;;;2.22;;
22549;SDS011;11441;57.164;-2.120;2023-02-08T13:05:55;7.75;;;2.95;;
22549;SDS011;11441;57.164;-2.120;2023-02-08T13:11:31;11.93;;;2.25;;
22549;SDS011;11441;57.164;-2.120;2023-02-08T13:14:12;9.52;;;2.08;;
22549;SDS011;11441;57.164;-2.120;2023-02-08T13:16:49;5.13;;;1.38;;
22549;SDS011;11441;57.164;-2.120;2023-02-08T13:19:25;7.20;;;1.92;;
22549;SDS011;11441;57.164;-2.120;2023-02-08T13:21:57;5.05;;;1.85;;
22549;SDS011;11441;57.164;-2.120;2023-02-08T13:26:58;9.10;;;2.13;;
22549;SDS011;11441;57.164;-2.120;2023-02-08T13:29:25;9.23;;;2.13;;
22549;SDS011;11441;57.164;-2.120;2023-02-08T13:32:17;5.28;;;2.00;;
22549;SDS011;11441;57.164;-2.120;2023-02-08T13:35:00;7.75;;;1.67;;
22549;SDS011;11441;57.164;-2.120;2023-02-08T13:37:31;11.50;;;1.92;;
22549;SDS011;11441;57.164;-2.120;2023-02-08T13:42:38;6.15;;;1.60;;
22549;SDS011;11441;57.164;-2.120;2023-02-08T13:45:09;8.77;;;1.42;;
22549;SDS011;11441;57.164;-2.120;2023-02-08T13:47:55;8.45;;;1.65;;
22549;SDS011;11441;57.164;-2.120;2023-02-08T13:50:44;9.65;;;1.33;;
22549;SDS011;11441;57.164;-2.120;2023-02-08T13:56:12;9.18;;;1.85;;
22549;SDS011;11441;57.164;-2.120;2023-02-08T14:02:20;5.80;;;1.40;;
22549;SDS011;11441;57.164;-2.120;2023-02-08T14:04:52;4.20;;;1.10;;
22549;SDS011;11441;57.164;-2.120;2023-02-08T14:07:36;4.50;;;1.38;;
22549;SDS011;11441;57.164;-2.120;2023-02-08T14:10:17;3.92;;;2.08;;
22549;SDS011;11441;57.164;-2.120;2023-02-08T14:12:53;6.22;;;1.58;;
22549;SDS011;11441;57.164;-2.120;2023-02-08T14:15:27;4.35;;;1.63;;
22549;SDS011;11441;57.164;-2.120;2023-02-08T14:18:03;5.72;;;1.10;;
22549;SDS011;11441;57.164;-2.120;2023-02-08T14:20:44;9.80;;;0.93;;
22549;SDS011;11441;57.164;-2.120;2023-02-08T14:23:27;3.47;;;0.80;;
22549;SDS011;11441;57.164;-2.120;2023-02-08T14:25:57;3.78;;;1.13;;
22549;SDS011;11441;57.164;-2.120;2023-02-08T14:28:36;3.60;;;1.13;;
22549;SDS011;11441;57.164;-2.120;2023-02-08T14:31:07;6.22;;;1.40;;
22549;SDS011;11441;57.164;-2.120;2023-02-08T14:33:37;5.40;;;0.73;;
22549;SDS011;11441;57.164;-2.120;2023-02-08T14:36:18;5.40;;;1.02;;
22549;SDS011;11441;57.164;-2.120;2023-02-08T14:41:56;4.15;;;1.38;;
22549;SDS011;11441;57.164;-2.120;2023-02-08T14:52:41;3.20;;;1.17;;
22549;SDS011;11441;57.164;-2.120;2023-02-08T14:55:17;1.80;;;0.95;;
22549;SDS011;11441;57.164;-2.120;2023-02-08T14:57:52;5.32;;;1.17;;
22549;SDS011;11441;57.164;-2.120;2023-02-08T15:00:24;5.78;;;1.33;;
22549;SDS011;11441;57.164;-2.120;2023-02-08T15:02:55;6.03;;;1.55;;
22549;SDS011;11441;57.164;-2.120;2023-02-08T15:05:56;7.38;;;1.52;;
22549;SDS011;11441;57.164;-2.120;2023-02-08T15:08:38;5.93;;;1.58;;
22549;SDS011;11441;57.164;-2.120;2023-02-08T15:11:14;8.15;;;1.70;;
22549;SDS011;11441;57.164;-2.120;2023-02-08T15:13:49;5.50;;;1.77;;
22549;SDS011;11441;57.164;-2.120;2023-02-08T15:16:19;4.40;;;0.93;;
22549;SDS011;11441;57.164;-2.120;2023-02-08T15:18:47;4.38;;;1.23;;
22549;SDS011;11441;57.164;-2.120;2023-02-08T15:21:17;6.82;;;1.70;;
22549;SDS011;11441;57.164;-2.120;2023-02-08T15:26:52;7.05;;;1.30;;
22549;SDS011;11441;57.164;-2.120;2023-02-08T15:29:24;3.22;;;0.98;;
22549;SDS011;11441;57.164;-2.120;2023-02-08T15:32:13;5.57;;;1.48;;
22549;SDS011;11441;57.164;-2.120;2023-02-08T15:34:43;11.57;;;1.45;;
22549;SDS011;11441;57.164;-2.120;2023-02-08T15:37:19;8.30;;;1.67;;
22549;SDS011;11441;57.164;-2.120;2023-02-08T15:39:48;9.18;;;1.63;;
22549;SDS011;11441;57.164;-2.120;2023-02-08T15:42:17;5.90;;;1.30;;
22549;SDS011;11441;57.164;-2.120;2023-02-08T15:44:47;6.80;;;1.73;;
22549;SDS011;11441;57.164;-2.120;2023-02-08T15:47:35;4.10;;;1.58;;
22549;SDS011;11441;57.164;-2.120;2023-02-08T15:50:04;5.53;;;1.77;;
22549;SDS011;11441;57.164;-2.120;2023-02-08T15:53:00;4.85;;;1.15;;
22549;SDS011;11441;57.164;-2.120;2023-02-08T15:55:36;9.68;;;1.40;;
22549;SDS011;11441;57.164;-2.120;2023-02-08T15:58:17;4.82;;;1.48;;
22549;SDS011;11441;57.164;-2.120;2023-02-08T16:00:53;5.80;;;1.52;;
22549;SDS011;11441;57.164;-2.120;2023-02-08T16:03:22;5.57;;;1.58;;
22549;SDS011;11441;57.164;-2.120;2023-02-08T16:05:55;4.85;;;1.63;;
22549;SDS011;11441;57.164;-2.120;2023-02-08T16:08:25;11.20;;;2.10;;
22549;SDS011;11441;57.164;-2.120;2023-02-08T16:10:59;5.32;;;1.48;;
22549;SDS011;11441;57.164;-2.120;2023-02-08T16:13:35;7.65;;;1.75;;
22549;SDS011;11441;57.164;-2.120;2023-02-08T16:23:51;8.38;;;1.77;;
22549;SDS011;11441;57.164;-2.120;2023-02-08T16:26:23;9.55;;;2.70;;
22549;SDS011;11441;57.164;-2.120;2023-02-08T16:28:55;8.52;;;2.85;;
22549;SDS011;11441;57.164;-2.120;2023-02-08T16:31:23;7.43;;;1.88;;
22549;SDS011;11441;57.164;-2.120;2023-02-08T16:34:06;7.00;;;1.50;;
22549;SDS011;11441;57.164;-2.120;2023-02-08T16:36:40;9.00;;;2.10;;
22549;SDS011;11441;57.164;-2.120;2023-02-08T16:42:40;7.43;;;2.25;;
22549;SDS011;11441;57.164;-2.120;2023-02-08T16:47:36;10.15;;;1.30;;
22549;SDS011;11441;57.164;-2.120;2023-02-08T16:50:05;4.17;;;1.27;;
22549;SDS011;11441;57.164;-2.120;2023-02-08T16:52:54;6.80;;;1.70;;
22549;SDS011;11441;57.164;-2.120;2023-02-08T16:55:25;7.53;;;1.60;;
22549;SDS011;11441;57.164;-2.120;2023-02-08T16:57:54;7.18;;;1.80;;
22549;SDS011;11441;57.164;-2.120;2023-02-08T17:00:29;12.02;;;3.15;;
22549;SDS011;11441;57.164;-2.120;2023-02-08T17:02:59;12.67;;;7.87;;
22549;SDS011;11441;57.164;-2.120;2023-02-08T17:05:30;15.33;;;8.50;;
22549;SDS011;11441;57.164;-2.120;2023-02-08T17:08:19;17.63;;;7.63;;
22549;SDS011;11441;57.164;-2.120;2023-02-08T17:10:47;15.13;;;5.32;;
22549;SDS011;11441;57.164;-2.120;2023-02-08T17:13:17;12.23;;;5.47;;
22549;SDS011;11441;57.164;-2.120;2023-02-08T17:15:47;9.18;;;3.80;;
22549;SDS011;11441;57.164;-2.120;2023-02-08T17:18:15;9.38;;;4.63;;
22549;SDS011;11441;57.164;-2.120;2023-02-08T17:20:42;13.05;;;5.20;;
22549;SDS011;11441;57.164;-2.120;2023-02-08T17:23:10;6.85;;;3.55;;
22549;SDS011;11441;57.164;-2.120;2023-02-08T17:25:37;9.52;;;2.88;;
22549;SDS011;11441;57.164;-2.120;2023-02-08T17:28:10;13.43;;;3.70;;
22549;SDS011;11441;57.164;-2.120;2023-02-08T17:30:42;9.00;;;2.30;;